Saint John, WA (99171)

4:24 PM PDT on July 31, 2014 (GMT -0700)
Winona-Silk Stocking Road (KWAENDIC4) Elev 1483 ft | 46.94 °N, 117.80 °W | Change Station

Current weather conditions updated 2 seconds ago

Clear
Clear
98.4 °F
Feels Like 94 °F
N
7.6
Wind Variable Wind from West
Gusts 10.5 mph

Tomorrow is forecast to be Cooler than today.

Today
High -- | Low -- °F
--% Chance of Precip.
Yesterday
High -- | Low -- °F
Precip. -- in
5:28 AM 8:24 PM
Waxing Crescent, 21% visible
Pressure 30.00 in
Visibility 10.0 miles
Clouds Clear
Heat Index 94 °F
Dew Point 39 °F
Humidity 13%
Rainfall 0.00 in
Snow Depth Not available.
UV 6 out of 12
Pollen 6.50 out of 12
Air Quality Not available.
Flu Activity Not available.
METAR KPUW 312253Z AUTO 27008KT 10SM CLR 36/03 A3006 RMK AO2 SLP159 T03560028

More Conditions Fewer Conditions

Pressure 30.00 in
Visibility 10.0 miles
Clouds Clear
Heat Index 94 °F
Dew Point 39 °F
Humidity 13%
Rainfall 0.00 in
Snow Depth Not available.
UV 6 out of 12
Pollen 6.50 out of 12
Air Quality Not available.
Flu Activity Not available.
METAR KPUW 312253Z AUTO 27008KT 10SM CLR 36/03 A3006 RMK AO2 SLP159 T03560028

More Conditions Fewer Conditions

10-Day Weather Forecast

Almanac

Astronomy

Jul. 31, 2014 Rise Set
Actual Time 5:28 AM PDT 8:24 PM PDT
Civil Twilight 4:52 AM PDT 8:59 PM PDT
Nautical Twilight 4:06 AM PDT 9:45 PM PDT
Astronomical Twilight 3:11 AM PDT 10:39 PM PDT
Moon 10:21 AM PDT 10:16 PM PDT
Length of Visible Light 16h 07m
Length of Day
14h 55m
Tomorrow will be 2m 36s shorter.
Waxing Crescent, 21% of the Moon is Illuminated
Today
Waxing Crescent
Aug 3
First Quarter
Aug 10
Full
Aug 17
Last Quarter
Aug 25
New

Today's Extremes

State Highs State Lows

Community

WunderPhotos

Upload Photos

1,739,462 photos uploaded!

Nearby

Snow Depth

Station Depth Elevation
Quartz Peak 1 in 4700 ft
Moses Mountain 1 in 5300 ft
Sentinel Butte 0 in 4920 ft
Trough 0 in 5300 ft
Grouse Camp 0 in 5380 ft

Earthquake Activity

City Distance Mag. Time & Date
No recent earthquake activity has been reported nearby.
Minimum magnitude displayed is 2.5.

Coastal Water Temperatures

Place Temperature
No Stations Reporting

Nearby Weather Stations

Station Location Temp. Heat Index Dew Point Humidity Wind Precip. Elev Updated Type
Winona-Silk Stocking Road, Endicott, WA 98.4 °F 94 °F 39 °F 13% West  at  7.6 mph 0.00 in / hr 1483 ft 4:24 PM PDT Rapid Fire
RAWS ESCURE WA, Benge, WA 100 °F 95 °F 36 °F 11% West  at  11 mph 0.00 in / hr 1740 ft 3:41 PM PDT MADIS
Garfield, WA 96.8 °F 93 °F 43 °F 16% South  at  0.0 mph 0.00 in / hr 2520 ft 4:20 PM PDT Normal
RAWS CHENEY WA, Cheney, WA 98 °F 93 °F 32 °F 10% SSW  at  10 mph 0.00 in / hr 2229 ft 3:28 PM PDT MADIS

Show More Stations Show Fewer Stations